sensor_id;sensor_type;location;lat;lon;timestamp;P1;durP1;ratioP1;P2;durP2;ratioP2
44110;SDS011;29774;52.664;5.074;2023-07-13T00:01:27;1.80;;;0.70;;
44110;SDS011;29774;52.664;5.074;2023-07-13T00:03:54;0.65;;;0.40;;
44110;SDS011;29774;52.664;5.074;2023-07-13T00:06:21;1.70;;;0.50;;
44110;SDS011;29774;52.664;5.074;2023-07-13T00:08:47;0.90;;;0.60;;
44110;SDS011;29774;52.664;5.074;2023-07-13T00:11:14;1.83;;;0.50;;
44110;SDS011;29774;52.664;5.074;2023-07-13T00:13:40;3.90;;;0.80;;
44110;SDS011;29774;52.664;5.074;2023-07-13T00:16:07;2.97;;;0.93;;
44110;SDS011;29774;52.664;5.074;2023-07-13T00:18:34;1.88;;;0.73;;
44110;SDS011;29774;52.664;5.074;2023-07-13T00:21:00;1.63;;;0.63;;
44110;SDS011;29774;52.664;5.074;2023-07-13T00:23:30;1.38;;;0.73;;
44110;SDS011;29774;52.664;5.074;2023-07-13T00:25:58;2.38;;;0.70;;
44110;SDS011;29774;52.664;5.074;2023-07-13T00:28:25;2.15;;;0.77;;
44110;SDS011;29774;52.664;5.074;2023-07-13T00:30:50;2.00;;;0.47;;
44110;SDS011;29774;52.664;5.074;2023-07-13T00:33:16;1.23;;;0.73;;
44110;SDS011;29774;52.664;5.074;2023-07-13T00:35:41;1.98;;;0.60;;
44110;SDS011;29774;52.664;5.074;2023-07-13T00:38:08;1.83;;;0.70;;
44110;SDS011;29774;52.664;5.074;2023-07-13T00:40:34;1.50;;;0.70;;
44110;SDS011;29774;52.664;5.074;2023-07-13T00:43:00;1.95;;;0.55;;
44110;SDS011;29774;52.664;5.074;2023-07-13T00:47:51;5.18;;;1.55;;
44110;SDS011;29774;52.664;5.074;2023-07-13T00:50:18;2.53;;;0.85;;
44110;SDS011;29774;52.664;5.074;2023-07-13T00:52:47;1.42;;;0.60;;
44110;SDS011;29774;52.664;5.074;2023-07-13T00:55:15;3.78;;;0.68;;
44110;SDS011;29774;52.664;5.074;2023-07-13T00:57:42;1.52;;;0.70;;
44110;SDS011;29774;52.664;5.074;2023-07-13T01:00:09;3.50;;;0.90;;
44110;SDS011;29774;52.664;5.074;2023-07-13T01:02:37;4.88;;;1.25;;
44110;SDS011;29774;52.664;5.074;2023-07-13T01:05:11;3.47;;;1.00;;
44110;SDS011;29774;52.664;5.074;2023-07-13T01:07:41;5.43;;;1.40;;
44110;SDS011;29774;52.664;5.074;2023-07-13T01:10:09;3.10;;;1.05;;
44110;SDS011;29774;52.664;5.074;2023-07-13T01:12:35;3.33;;;1.10;;
44110;SDS011;29774;52.664;5.074;2023-07-13T01:15:02;10.60;;;1.60;;
44110;SDS011;29774;52.664;5.074;2023-07-13T01:17:29;4.18;;;1.10;;
44110;SDS011;29774;52.664;5.074;2023-07-13T01:19:56;9.30;;;2.00;;
44110;SDS011;29774;52.664;5.074;2023-07-13T01:22:22;5.20;;;1.63;;
44110;SDS011;29774;52.664;5.074;2023-07-13T01:24:50;7.20;;;1.75;;
44110;SDS011;29774;52.664;5.074;2023-07-13T01:27:17;1.80;;;0.90;;
44110;SDS011;29774;52.664;5.074;2023-07-13T01:29:46;3.90;;;1.30;;
44110;SDS011;29774;52.664;5.074;2023-07-13T01:32:14;3.95;;;0.90;;
44110;SDS011;29774;52.664;5.074;2023-07-13T01:34:41;4.65;;;1.17;;
44110;SDS011;29774;52.664;5.074;2023-07-13T01:37:08;4.43;;;1.23;;
44110;SDS011;29774;52.664;5.074;2023-07-13T01:39:34;3.28;;;1.40;;
44110;SDS011;29774;52.664;5.074;2023-07-13T01:42:00;2.70;;;1.23;;
44110;SDS011;29774;52.664;5.074;2023-07-13T01:44:26;6.85;;;1.70;;
44110;SDS011;29774;52.664;5.074;2023-07-13T01:46:52;4.72;;;1.50;;
44110;SDS011;29774;52.664;5.074;2023-07-13T01:49:17;3.95;;;1.27;;
44110;SDS011;29774;52.664;5.074;2023-07-13T01:51:43;4.30;;;1.38;;
44110;SDS011;29774;52.664;5.074;2023-07-13T01:54:08;3.10;;;1.30;;
44110;SDS011;29774;52.664;5.074;2023-07-13T01:56:34;4.72;;;1.38;;
44110;SDS011;29774;52.664;5.074;2023-07-13T01:58:59;4.85;;;1.30;;
44110;SDS011;29774;52.664;5.074;2023-07-13T02:01:25;4.57;;;1.40;;
44110;SDS011;29774;52.664;5.074;2023-07-13T02:03:51;5.05;;;1.40;;
44110;SDS011;29774;52.664;5.074;2023-07-13T02:06:16;4.70;;;1.42;;
44110;SDS011;29774;52.664;5.074;2023-07-13T02:08:42;2.78;;;1.45;;
44110;SDS011;29774;52.664;5.074;2023-07-13T02:11:08;5.47;;;0.98;;
44110;SDS011;29774;52.664;5.074;2023-07-13T02:13:34;5.72;;;1.30;;
44110;SDS011;29774;52.664;5.074;2023-07-13T02:15:59;3.40;;;1.30;;
44110;SDS011;29774;52.664;5.074;2023-07-13T02:18:25;2.15;;;1.15;;
44110;SDS011;29774;52.664;5.074;2023-07-13T02:20:51;2.40;;;1.10;;
44110;SDS011;29774;52.664;5.074;2023-07-13T02:23:16;3.55;;;1.10;;
44110;SDS011;29774;52.664;5.074;2023-07-13T02:25:42;3.00;;;1.30;;
44110;SDS011;29774;52.664;5.074;2023-07-13T02:28:08;1.63;;;1.13;;
44110;SDS011;29774;52.664;5.074;2023-07-13T02:30:34;1.95;;;1.00;;
44110;SDS011;29774;52.664;5.074;2023-07-13T02:32:59;3.42;;;1.02;;
44110;SDS011;29774;52.664;5.074;2023-07-13T02:35:25;4.32;;;1.40;;
44110;SDS011;29774;52.664;5.074;2023-07-13T02:37:51;3.55;;;0.75;;
44110;SDS011;29774;52.664;5.074;2023-07-13T02:40:16;1.95;;;1.00;;
44110;SDS011;29774;52.664;5.074;2023-07-13T02:42:42;1.80;;;0.70;;
44110;SDS011;29774;52.664;5.074;2023-07-13T02:45:08;3.42;;;1.15;;
44110;SDS011;29774;52.664;5.074;2023-07-13T02:47:35;1.75;;;0.85;;
44110;SDS011;29774;52.664;5.074;2023-07-13T02:50:01;2.10;;;0.90;;
44110;SDS011;29774;52.664;5.074;2023-07-13T02:52:27;3.55;;;0.90;;
44110;SDS011;29774;52.664;5.074;2023-07-13T02:54:53;2.30;;;0.95;;
44110;SDS011;29774;52.664;5.074;2023-07-13T02:57:18;1.33;;;0.90;;
44110;SDS011;29774;52.664;5.074;2023-07-13T02:59:44;1.00;;;0.65;;
44110;SDS011;29774;52.664;5.074;2023-07-13T03:02:10;3.92;;;1.13;;
44110;SDS011;29774;52.664;5.074;2023-07-13T03:04:36;1.65;;;0.82;;
44110;SDS011;29774;52.664;5.074;2023-07-13T03:07:02;2.75;;;0.90;;
44110;SDS011;29774;52.664;5.074;2023-07-13T03:09:28;4.30;;;1.02;;
44110;SDS011;29774;52.664;5.074;2023-07-13T03:11:54;2.65;;;1.10;;
44110;SDS011;29774;52.664;5.074;2023-07-13T03:14:21;2.30;;;1.40;;
44110;SDS011;29774;52.664;5.074;2023-07-13T03:16:47;3.67;;;1.08;;
44110;SDS011;29774;52.664;5.074;2023-07-13T03:19:13;2.92;;;0.80;;
44110;SDS011;29774;52.664;5.074;2023-07-13T03:21:39;2.05;;;0.80;;
44110;SDS011;29774;52.664;5.074;2023-07-13T03:24:04;2.25;;;1.00;;
44110;SDS011;29774;52.664;5.074;2023-07-13T03:26:30;2.80;;;1.10;;
44110;SDS011;29774;52.664;5.074;2023-07-13T03:28:56;3.55;;;0.85;;
44110;SDS011;29774;52.664;5.074;2023-07-13T03:31:24;1.92;;;0.85;;
44110;SDS011;29774;52.664;5.074;2023-07-13T03:33:53;2.88;;;0.80;;
44110;SDS011;29774;52.664;5.074;2023-07-13T03:36:20;1.80;;;1.30;;
44110;SDS011;29774;52.664;5.074;2023-07-13T03:38:49;3.45;;;1.02;;
44110;SDS011;29774;52.664;5.074;2023-07-13T03:41:16;2.25;;;0.82;;
44110;SDS011;29774;52.664;5.074;2023-07-13T03:43:42;3.03;;;0.77;;
44110;SDS011;29774;52.664;5.074;2023-07-13T03:46:08;2.63;;;1.10;;
44110;SDS011;29774;52.664;5.074;2023-07-13T03:48:34;2.08;;;0.85;;
44110;SDS011;29774;52.664;5.074;2023-07-13T03:50:59;2.90;;;0.80;;
44110;SDS011;29774;52.664;5.074;2023-07-13T03:53:25;3.67;;;1.02;;
44110;SDS011;29774;52.664;5.074;2023-07-13T03:55:51;3.72;;;1.10;;
44110;SDS011;29774;52.664;5.074;2023-07-13T03:58:27;3.00;;;0.80;;
44110;SDS011;29774;52.664;5.074;2023-07-13T04:00:57;3.42;;;0.95;;
44110;SDS011;29774;52.664;5.074;2023-07-13T04:03:24;2.88;;;1.15;;
44110;SDS011;29774;52.664;5.074;2023-07-13T04:05:50;2.92;;;1.23;;
44110;SDS011;29774;52.664;5.074;2023-07-13T04:08:15;4.20;;;1.10;;
44110;SDS011;29774;52.664;5.074;2023-07-13T04:10:42;2.92;;;1.13;;
44110;SDS011;29774;52.664;5.074;2023-07-13T04:13:08;4.00;;;1.20;;
44110;SDS011;29774;52.664;5.074;2023-07-13T04:15:34;1.85;;;1.15;;
44110;SDS011;29774;52.664;5.074;2023-07-13T04:17:59;1.65;;;0.70;;
44110;SDS011;29774;52.664;5.074;2023-07-13T04:20:25;1.70;;;0.77;;
44110;SDS011;29774;52.664;5.074;2023-07-13T04:22:51;1.50;;;1.10;;
44110;SDS011;29774;52.664;5.074;2023-07-13T04:25:18;2.72;;;0.85;;
44110;SDS011;29774;52.664;5.074;2023-07-13T04:27:45;3.53;;;0.88;;
44110;SDS011;29774;52.664;5.074;2023-07-13T04:30:11;2.88;;;0.88;;
44110;SDS011;29774;52.664;5.074;2023-07-13T04:32:36;1.60;;;1.00;;
44110;SDS011;29774;52.664;5.074;2023-07-13T04:35:02;2.05;;;1.15;;
44110;SDS011;29774;52.664;5.074;2023-07-13T04:37:28;2.63;;;0.95;;
44110;SDS011;29774;52.664;5.074;2023-07-13T04:39:54;4.82;;;1.50;;
44110;SDS011;29774;52.664;5.074;2023-07-13T04:42:20;2.15;;;1.00;;
44110;SDS011;29774;52.664;5.074;2023-07-13T04:44:48;2.90;;;1.00;;
44110;SDS011;29774;52.664;5.074;2023-07-13T04:47:14;3.80;;;1.23;;
44110;SDS011;29774;52.664;5.074;2023-07-13T04:49:40;3.83;;;1.35;;
44110;SDS011;29774;52.664;5.074;2023-07-13T04:52:06;4.78;;;1.40;;
44110;SDS011;29774;52.664;5.074;2023-07-13T04:54:32;3.35;;;1.30;;
44110;SDS011;29774;52.664;5.074;2023-07-13T04:56:59;3.58;;;1.38;;
44110;SDS011;29774;52.664;5.074;2023-07-13T04:59:25;1.50;;;0.93;;
44110;SDS011;29774;52.664;5.074;2023-07-13T05:01:50;4.40;;;1.27;;
44110;SDS011;29774;52.664;5.074;2023-07-13T05:04:16;2.47;;;1.27;;
44110;SDS011;29774;52.664;5.074;2023-07-13T05:06:42;2.67;;;0.95;;
44110;SDS011;29774;52.664;5.074;2023-07-13T05:09:08;2.28;;;0.90;;
44110;SDS011;29774;52.664;5.074;2023-07-13T05:11:34;3.88;;;1.10;;
44110;SDS011;29774;52.664;5.074;2023-07-13T05:13:59;2.53;;;1.40;;
44110;SDS011;29774;52.664;5.074;2023-07-13T05:16:26;1.85;;;0.95;;
44110;SDS011;29774;52.664;5.074;2023-07-13T05:18:52;4.97;;;1.42;;
44110;SDS011;29774;52.664;5.074;2023-07-13T05:21:18;3.20;;;1.10;;
44110;SDS011;29774;52.664;5.074;2023-07-13T05:23:43;3.28;;;1.02;;
44110;SDS011;29774;52.664;5.074;2023-07-13T05:26:09;4.88;;;1.38;;
44110;SDS011;29774;52.664;5.074;2023-07-13T05:28:35;2.75;;;0.98;;
44110;SDS011;29774;52.664;5.074;2023-07-13T05:31:01;3.10;;;1.08;;
44110;SDS011;29774;52.664;5.074;2023-07-13T05:33:26;2.05;;;0.95;;
44110;SDS011;29774;52.664;5.074;2023-07-13T05:35:53;3.67;;;1.35;;
44110;SDS011;29774;52.664;5.074;2023-07-13T05:38:18;3.35;;;1.27;;
44110;SDS011;29774;52.664;5.074;2023-07-13T05:40:44;1.85;;;1.10;;
44110;SDS011;29774;52.664;5.074;2023-07-13T05:43:10;2.75;;;1.20;;
44110;SDS011;29774;52.664;5.074;2023-07-13T05:45:36;3.00;;;1.25;;
44110;SDS011;29774;52.664;5.074;2023-07-13T05:48:02;3.47;;;1.23;;
44110;SDS011;29774;52.664;5.074;2023-07-13T05:50:28;2.85;;;1.30;;
44110;SDS011;29774;52.664;5.074;2023-07-13T05:52:53;3.75;;;1.20;;
44110;SDS011;29774;52.664;5.074;2023-07-13T05:55:19;2.05;;;1.02;;
44110;SDS011;29774;52.664;5.074;2023-07-13T05:57:45;3.03;;;1.10;;
44110;SDS011;29774;52.664;5.074;2023-07-13T06:00:11;2.80;;;1.10;;
44110;SDS011;29774;52.664;5.074;2023-07-13T06:02:37;3.58;;;1.15;;
44110;SDS011;29774;52.664;5.074;2023-07-13T06:05:02;2.78;;;1.10;;
44110;SDS011;29774;52.664;5.074;2023-07-13T06:07:28;2.33;;;0.93;;
44110;SDS011;29774;52.664;5.074;2023-07-13T06:09:54;3.25;;;1.17;;
44110;SDS011;29774;52.664;5.074;2023-07-13T06:12:19;2.35;;;1.05;;
44110;SDS011;29774;52.664;5.074;2023-07-13T06:14:45;3.83;;;1.40;;
44110;SDS011;29774;52.664;5.074;2023-07-13T06:17:11;1.58;;;0.90;;
44110;SDS011;29774;52.664;5.074;2023-07-13T06:19:36;3.50;;;1.30;;
44110;SDS011;29774;52.664;5.074;2023-07-13T06:22:02;2.15;;;1.25;;
44110;SDS011;29774;52.664;5.074;2023-07-13T06:24:28;4.28;;;1.08;;
44110;SDS011;29774;52.664;5.074;2023-07-13T06:26:53;8.43;;;1.40;;
44110;SDS011;29774;52.664;5.074;2023-07-13T06:29:19;3.75;;;1.30;;
44110;SDS011;29774;52.664;5.074;2023-07-13T06:31:45;6.45;;;1.63;;
44110;SDS011;29774;52.664;5.074;2023-07-13T06:34:10;4.35;;;1.20;;
44110;SDS011;29774;52.664;5.074;2023-07-13T06:36:36;3.47;;;1.42;;
44110;SDS011;29774;52.664;5.074;2023-07-13T06:39:03;5.95;;;1.45;;
44110;SDS011;29774;52.664;5.074;2023-07-13T06:41:29;2.33;;;1.45;;
44110;SDS011;29774;52.664;5.074;2023-07-13T06:43:55;5.07;;;1.30;;
44110;SDS011;29774;52.664;5.074;2023-07-13T06:46:21;3.05;;;1.15;;
44110;SDS011;29774;52.664;5.074;2023-07-13T06:48:47;3.28;;;1.10;;
44110;SDS011;29774;52.664;5.074;2023-07-13T06:51:13;3.25;;;1.15;;
44110;SDS011;29774;52.664;5.074;2023-07-13T06:53:39;1.90;;;0.98;;
44110;SDS011;29774;52.664;5.074;2023-07-13T06:56:05;1.08;;;0.85;;
44110;SDS011;29774;52.664;5.074;2023-07-13T06:58:31;3.65;;;1.05;;
44110;SDS011;29774;52.664;5.074;2023-07-13T07:00:58;1.80;;;1.15;;
44110;SDS011;29774;52.664;5.074;2023-07-13T07:03:24;2.72;;;0.85;;
44110;SDS011;29774;52.664;5.074;2023-07-13T07:05:49;2.92;;;1.10;;
44110;SDS011;29774;52.664;5.074;2023-07-13T07:08:15;4.25;;;0.98;;
44110;SDS011;29774;52.664;5.074;2023-07-13T07:10:41;3.15;;;1.23;;
44110;SDS011;29774;52.664;5.074;2023-07-13T07:13:07;2.42;;;1.05;;
44110;SDS011;29774;52.664;5.074;2023-07-13T07:15:33;0.70;;;0.70;;
44110;SDS011;29774;52.664;5.074;2023-07-13T07:18:00;1.95;;;1.35;;
44110;SDS011;29774;52.664;5.074;2023-07-13T07:20:25;2.92;;;1.05;;
44110;SDS011;29774;52.664;5.074;2023-07-13T07:22:51;2.58;;;1.02;;
44110;SDS011;29774;52.664;5.074;2023-07-13T07:25:17;2.78;;;0.90;;
44110;SDS011;29774;52.664;5.074;2023-07-13T07:27:44;3.03;;;1.23;;
44110;SDS011;29774;52.664;5.074;2023-07-13T07:30:10;2.28;;;1.17;;
44110;SDS011;29774;52.664;5.074;2023-07-13T07:32:36;4.20;;;1.80;;
44110;SDS011;29774;52.664;5.074;2023-07-13T07:35:02;2.42;;;1.38;;
44110;SDS011;29774;52.664;5.074;2023-07-13T07:37:27;4.03;;;1.23;;
44110;SDS011;29774;52.664;5.074;2023-07-13T07:39:53;4.10;;;1.13;;
44110;SDS011;29774;52.664;5.074;2023-07-13T07:42:19;2.15;;;0.90;;
44110;SDS011;29774;52.664;5.074;2023-07-13T07:44:44;1.25;;;1.05;;
44110;SDS011;29774;52.664;5.074;2023-07-13T07:47:10;2.80;;;1.13;;
44110;SDS011;29774;52.664;5.074;2023-07-13T07:49:36;2.10;;;1.15;;
44110;SDS011;29774;52.664;5.074;2023-07-13T07:52:03;1.73;;;1.00;;
44110;SDS011;29774;52.664;5.074;2023-07-13T07:54:29;2.70;;;0.98;;
44110;SDS011;29774;52.664;5.074;2023-07-13T07:56:54;0.98;;;0.73;;
44110;SDS011;29774;52.664;5.074;2023-07-13T07:59:20;1.85;;;1.08;;
44110;SDS011;29774;52.664;5.074;2023-07-13T08:01:46;2.13;;;0.90;;
44110;SDS011;29774;52.664;5.074;2023-07-13T08:04:13;3.15;;;1.02;;
44110;SDS011;29774;52.664;5.074;2023-07-13T08:06:38;1.85;;;1.00;;
44110;SDS011;29774;52.664;5.074;2023-07-13T08:09:04;1.23;;;0.80;;
44110;SDS011;29774;52.664;5.074;2023-07-13T08:11:29;1.35;;;0.70;;
44110;SDS011;29774;52.664;5.074;2023-07-13T08:13:55;2.70;;;1.08;;
44110;SDS011;29774;52.664;5.074;2023-07-13T08:16:21;1.33;;;0.65;;
44110;SDS011;29774;52.664;5.074;2023-07-13T08:18:47;1.35;;;1.13;;
44110;SDS011;29774;52.664;5.074;2023-07-13T08:21:13;2.08;;;0.85;;
44110;SDS011;29774;52.664;5.074;2023-07-13T08:23:39;1.75;;;0.65;;
44110;SDS011;29774;52.664;5.074;2023-07-13T08:26:05;1.10;;;0.65;;
44110;SDS011;29774;52.664;5.074;2023-07-13T08:28:31;1.17;;;0.80;;
44110;SDS011;29774;52.664;5.074;2023-07-13T08:31:02;1.67;;;1.10;;
44110;SDS011;29774;52.664;5.074;2023-07-13T08:33:28;1.65;;;0.80;;
44110;SDS011;29774;52.664;5.074;2023-07-13T08:35:54;3.15;;;0.70;;
44110;SDS011;29774;52.664;5.074;2023-07-13T08:38:19;1.95;;;0.70;;
44110;SDS011;29774;52.664;5.074;2023-07-13T08:40:53;2.25;;;1.17;;
44110;SDS011;29774;52.664;5.074;2023-07-13T08:43:23;1.50;;;1.00;;
44110;SDS011;29774;52.664;5.074;2023-07-13T08:45:55;2.70;;;0.60;;
44110;SDS011;29774;52.664;5.074;2023-07-13T08:48:32;0.80;;;0.77;;
44110;SDS011;29774;52.664;5.074;2023-07-13T08:54:10;1.77;;;0.90;;
44110;SDS011;29774;52.664;5.074;2023-07-13T08:56:37;1.35;;;0.70;;
44110;SDS011;29774;52.664;5.074;2023-07-13T08:59:10;1.70;;;0.70;;
44110;SDS011;29774;52.664;5.074;2023-07-13T09:04:42;2.45;;;0.85;;
44110;SDS011;29774;52.664;5.074;2023-07-13T09:07:39;1.13;;;0.60;;
44110;SDS011;29774;52.664;5.074;2023-07-13T09:10:33;0.50;;;0.50;;
44110;SDS011;29774;52.664;5.074;2023-07-13T09:15:46;1.90;;;0.90;;
44110;SDS011;29774;52.664;5.074;2023-07-13T09:18:15;0.77;;;0.65;;
44110;SDS011;29774;52.664;5.074;2023-07-13T09:21:05;3.97;;;0.80;;
44110;SDS011;29774;52.664;5.074;2023-07-13T09:23:38;2.35;;;0.90;;
44110;SDS011;29774;52.664;5.074;2023-07-13T09:28:40;1.38;;;0.93;;
44110;SDS011;29774;52.664;5.074;2023-07-13T09:31:15;3.25;;;0.90;;
44110;SDS011;29774;52.664;5.074;2023-07-13T09:33:46;0.57;;;0.50;;
44110;SDS011;29774;52.664;5.074;2023-07-13T09:36:17;1.40;;;0.63;;
44110;SDS011;29774;52.664;5.074;2023-07-13T09:41:35;1.33;;;0.60;;
44110;SDS011;29774;52.664;5.074;2023-07-13T09:44:10;0.63;;;0.50;;
44110;SDS011;29774;52.664;5.074;2023-07-13T09:46:45;1.15;;;0.73;;
44110;SDS011;29774;52.664;5.074;2023-07-13T09:49:32;0.93;;;0.65;;
44110;SDS011;29774;52.664;5.074;2023-07-13T09:52:04;1.13;;;0.55;;
44110;SDS011;29774;52.664;5.074;2023-07-13T09:54:35;1.13;;;0.77;;
44110;SDS011;29774;52.664;5.074;2023-07-13T09:57:02;1.50;;;0.80;;
44110;SDS011;29774;52.664;5.074;2023-07-13T09:59:39;4.32;;;0.95;;
44110;SDS011;29774;52.664;5.074;2023-07-13T10:05:11;1.65;;;0.77;;
44110;SDS011;29774;52.664;5.074;2023-07-13T10:07:44;2.72;;;0.70;;
44110;SDS011;29774;52.664;5.074;2023-07-13T10:10:17;1.42;;;0.80;;
44110;SDS011;29774;52.664;5.074;2023-07-13T10:12:48;1.27;;;0.70;;
44110;SDS011;29774;52.664;5.074;2023-07-13T10:15:17;0.80;;;0.80;;
44110;SDS011;29774;52.664;5.074;2023-07-13T10:17:44;2.03;;;0.95;;
44110;SDS011;29774;52.664;5.074;2023-07-13T10:20:11;1.05;;;0.77;;
44110;SDS011;29774;52.664;5.074;2023-07-13T10:25:25;1.88;;;0.75;;
44110;SDS011;29774;52.664;5.074;2023-07-13T10:28:02;0.93;;;0.77;;
44110;SDS011;29774;52.664;5.074;2023-07-13T10:30:35;1.73;;;1.20;;
44110;SDS011;29774;52.664;5.074;2023-07-13T10:33:09;1.10;;;0.80;;
44110;SDS011;29774;52.664;5.074;2023-07-13T10:35:37;1.13;;;0.73;;
44110;SDS011;29774;52.664;5.074;2023-07-13T10:38:07;2.13;;;0.90;;
44110;SDS011;29774;52.664;5.074;2023-07-13T10:40:45;1.17;;;0.70;;
44110;SDS011;29774;52.664;5.074;2023-07-13T10:43:23;1.58;;;0.70;;
44110;SDS011;29774;52.664;5.074;2023-07-13T10:45:52;1.67;;;1.00;;
44110;SDS011;29774;52.664;5.074;2023-07-13T10:48:19;2.75;;;1.05;;
44110;SDS011;29774;52.664;5.074;2023-07-13T10:50:48;1.08;;;0.80;;
44110;SDS011;29774;52.664;5.074;2023-07-13T11:01:11;2.58;;;0.90;;
44110;SDS011;29774;52.664;5.074;2023-07-13T11:19:08;2.05;;;1.05;;
44110;SDS011;29774;52.664;5.074;2023-07-13T11:27:39;0.98;;;0.75;;
44110;SDS011;29774;52.664;5.074;2023-07-13T11:30:24;2.80;;;1.20;;
44110;SDS011;29774;52.664;5.074;2023-07-13T11:38:22;5.00;;;1.23;;
44110;SDS011;29774;52.664;5.074;2023-07-13T11:41:26;1.05;;;0.82;;
44110;SDS011;29774;52.664;5.074;2023-07-13T11:46:54;1.73;;;0.90;;
44110;SDS011;29774;52.664;5.074;2023-07-13T11:49:24;1.25;;;0.95;;
44110;SDS011;29774;52.664;5.074;2023-07-13T11:51:52;2.35;;;0.88;;
44110;SDS011;29774;52.664;5.074;2023-07-13T11:56:59;2.03;;;1.00;;
44110;SDS011;29774;52.664;5.074;2023-07-13T11:59:31;0.95;;;0.70;;
44110;SDS011;29774;52.664;5.074;2023-07-13T12:01:58;0.88;;;0.70;;
44110;SDS011;29774;52.664;5.074;2023-07-13T12:04:25;1.55;;;0.88;;
44110;SDS011;29774;52.664;5.074;2023-07-13T12:07:03;1.77;;;0.80;;
44110;SDS011;29774;52.664;5.074;2023-07-13T12:09:31;1.65;;;0.90;;
44110;SDS011;29774;52.664;5.074;2023-07-13T12:11:58;2.08;;;0.90;;
44110;SDS011;29774;52.664;5.074;2023-07-13T12:14:27;1.50;;;1.00;;
44110;SDS011;29774;52.664;5.074;2023-07-13T12:16:53;1.65;;;0.95;;
44110;SDS011;29774;52.664;5.074;2023-07-13T12:19:20;1.52;;;0.98;;
44110;SDS011;29774;52.664;5.074;2023-07-13T12:21:52;1.55;;;0.82;;
44110;SDS011;29774;52.664;5.074;2023-07-13T12:24:20;1.30;;;0.80;;
44110;SDS011;29774;52.664;5.074;2023-07-13T12:26:51;1.55;;;1.00;;
44110;SDS011;29774;52.664;5.074;2023-07-13T12:29:17;1.67;;;1.00;;
44110;SDS011;29774;52.664;5.074;2023-07-13T12:31:44;0.95;;;0.70;;
44110;SDS011;29774;52.664;5.074;2023-07-13T12:36:38;1.10;;;0.75;;
44110;SDS011;29774;52.664;5.074;2023-07-13T12:41:41;3.25;;;0.90;;
44110;SDS011;29774;52.664;5.074;2023-07-13T12:44:43;1.08;;;0.68;;
44110;SDS011;29774;52.664;5.074;2023-07-13T12:47:06;2.67;;;1.30;;
44110;SDS011;29774;52.664;5.074;2023-07-13T12:49:39;0.50;;;0.50;;
44110;SDS011;29774;52.664;5.074;2023-07-13T12:52:14;1.02;;;0.80;;
44110;SDS011;29774;52.664;5.074;2023-07-13T12:54:41;1.38;;;0.73;;
44110;SDS011;29774;52.664;5.074;2023-07-13T12:57:08;2.78;;;1.20;;
44110;SDS011;29774;52.664;5.074;2023-07-13T12:59:41;0.90;;;0.80;;
44110;SDS011;29774;52.664;5.074;2023-07-13T13:02:18;2.38;;;1.10;;
44110;SDS011;29774;52.664;5.074;2023-07-13T13:04:56;2.17;;;1.13;;
44110;SDS011;29774;52.664;5.074;2023-07-13T13:07:23;1.75;;;0.70;;
44110;SDS011;29774;52.664;5.074;2023-07-13T13:09:49;2.17;;;1.08;;
44110;SDS011;29774;52.664;5.074;2023-07-13T13:12:15;0.80;;;0.80;;
44110;SDS011;29774;52.664;5.074;2023-07-13T13:14:42;1.60;;;0.80;;
44110;SDS011;29774;52.664;5.074;2023-07-13T13:17:21;1.10;;;0.98;;
44110;SDS011;29774;52.664;5.074;2023-07-13T13:19:49;0.88;;;0.60;;
44110;SDS011;29774;52.664;5.074;2023-07-13T13:22:18;1.98;;;0.65;;
44110;SDS011;29774;52.664;5.074;2023-07-13T13:24:43;1.65;;;0.90;;
44110;SDS011;29774;52.664;5.074;2023-07-13T13:27:13;1.27;;;0.88;;
44110;SDS011;29774;52.664;5.074;2023-07-13T13:29:42;3.05;;;1.08;;
44110;SDS011;29774;52.664;5.074;2023-07-13T13:32:10;1.63;;;1.02;;
44110;SDS011;29774;52.664;5.074;2023-07-13T13:34:38;0.88;;;0.70;;
44110;SDS011;29774;52.664;5.074;2023-07-13T13:37:04;2.00;;;0.60;;
44110;SDS011;29774;52.664;5.074;2023-07-13T13:39:40;1.33;;;0.93;;
44110;SDS011;29774;52.664;5.074;2023-07-13T13:42:08;1.00;;;0.80;;
44110;SDS011;29774;52.664;5.074;2023-07-13T13:44:34;1.20;;;1.08;;
44110;SDS011;29774;52.664;5.074;2023-07-13T13:47:00;1.15;;;0.82;;
44110;SDS011;29774;52.664;5.074;2023-07-13T13:49:27;2.33;;;0.93;;
44110;SDS011;29774;52.664;5.074;2023-07-13T13:51:54;1.02;;;0.82;;
44110;SDS011;29774;52.664;5.074;2023-07-13T13:54:21;1.20;;;0.95;;
44110;SDS011;29774;52.664;5.074;2023-07-13T13:56:48;2.97;;;1.20;;
44110;SDS011;29774;52.664;5.074;2023-07-13T13:59:15;1.70;;;0.77;;
44110;SDS011;29774;52.664;5.074;2023-07-13T14:01:44;3.97;;;1.10;;
44110;SDS011;29774;52.664;5.074;2023-07-13T14:04:16;1.08;;;0.75;;
44110;SDS011;29774;52.664;5.074;2023-07-13T14:06:44;1.70;;;0.82;;
44110;SDS011;29774;52.664;5.074;2023-07-13T14:09:10;2.17;;;0.70;;
44110;SDS011;29774;52.664;5.074;2023-07-13T14:11:38;1.02;;;0.80;;
44110;SDS011;29774;52.664;5.074;2023-07-13T14:14:08;2.42;;;1.17;;
44110;SDS011;29774;52.664;5.074;2023-07-13T14:16:41;1.02;;;0.85;;
44110;SDS011;29774;52.664;5.074;2023-07-13T14:19:08;1.95;;;0.93;;
44110;SDS011;29774;52.664;5.074;2023-07-13T14:21:37;1.10;;;1.00;;
44110;SDS011;29774;52.664;5.074;2023-07-13T14:24:03;1.08;;;0.90;;
44110;SDS011;29774;52.664;5.074;2023-07-13T14:26:29;1.38;;;0.80;;
44110;SDS011;29774;52.664;5.074;2023-07-13T14:29:00;0.68;;;0.65;;
44110;SDS011;29774;52.664;5.074;2023-07-13T14:31:26;2.38;;;0.90;;
44110;SDS011;29774;52.664;5.074;2023-07-13T14:33:55;2.75;;;0.70;;
44110;SDS011;29774;52.664;5.074;2023-07-13T14:36:28;3.03;;;1.10;;
44110;SDS011;29774;52.664;5.074;2023-07-13T14:38:56;1.10;;;0.80;;
44110;SDS011;29774;52.664;5.074;2023-07-13T14:41:23;3.10;;;1.00;;
44110;SDS011;29774;52.664;5.074;2023-07-13T14:43:49;1.02;;;0.93;;
44110;SDS011;29774;52.664;5.074;2023-07-13T14:46:22;3.17;;;1.65;;
44110;SDS011;29774;52.664;5.074;2023-07-13T14:48:54;1.05;;;0.95;;
44110;SDS011;29774;52.664;5.074;2023-07-13T14:51:26;1.27;;;0.82;;
44110;SDS011;29774;52.664;5.074;2023-07-13T14:53:52;1.02;;;0.93;;
44110;SDS011;29774;52.664;5.074;2023-07-13T14:56:17;2.63;;;1.00;;
44110;SDS011;29774;52.664;5.074;2023-07-13T14:58:43;1.48;;;0.90;;
44110;SDS011;29774;52.664;5.074;2023-07-13T15:01:11;2.03;;;0.93;;
44110;SDS011;29774;52.664;5.074;2023-07-13T15:03:38;1.58;;;1.10;;
44110;SDS011;29774;52.664;5.074;2023-07-13T15:06:11;5.43;;;1.30;;
44110;SDS011;29774;52.664;5.074;2023-07-13T15:08:38;2.17;;;1.27;;
44110;SDS011;29774;52.664;5.074;2023-07-13T15:11:06;3.15;;;1.15;;
44110;SDS011;29774;52.664;5.074;2023-07-13T15:13:38;2.33;;;0.93;;
44110;SDS011;29774;52.664;5.074;2023-07-13T15:16:10;2.50;;;1.10;;
44110;SDS011;29774;52.664;5.074;2023-07-13T15:18:43;1.10;;;1.00;;
44110;SDS011;29774;52.664;5.074;2023-07-13T15:21:11;2.00;;;1.08;;
44110;SDS011;29774;52.664;5.074;2023-07-13T15:23:43;2.40;;;1.00;;
44110;SDS011;29774;52.664;5.074;2023-07-13T15:26:11;1.60;;;1.10;;
44110;SDS011;29774;52.664;5.074;2023-07-13T15:28:41;1.20;;;1.10;;
44110;SDS011;29774;52.664;5.074;2023-07-13T15:33:45;1.20;;;0.90;;
44110;SDS011;29774;52.664;5.074;2023-07-13T15:36:13;1.10;;;0.80;;
44110;SDS011;29774;52.664;5.074;2023-07-13T15:38:39;1.85;;;1.00;;
44110;SDS011;29774;52.664;5.074;2023-07-13T15:43:49;2.20;;;1.58;;
44110;SDS011;29774;52.664;5.074;2023-07-13T15:46:17;14.77;;;10.82;;
44110;SDS011;29774;52.664;5.074;2023-07-13T15:48:47;11.70;;;7.13;;
44110;SDS011;29774;52.664;5.074;2023-07-13T15:51:25;12.10;;;8.02;;
44110;SDS011;29774;52.664;5.074;2023-07-13T15:53:54;15.48;;;8.80;;
44110;SDS011;29774;52.664;5.074;2023-07-13T15:56:28;9.77;;;7.25;;
44110;SDS011;29774;52.664;5.074;2023-07-13T15:58:55;12.18;;;8.98;;
44110;SDS011;29774;52.664;5.074;2023-07-13T16:01:22;11.80;;;7.75;;
44110;SDS011;29774;52.664;5.074;2023-07-13T16:03:49;12.25;;;9.05;;
44110;SDS011;29774;52.664;5.074;2023-07-13T16:06:38;10.93;;;8.13;;